Time;durP1;ratioP1;P1;durP2;ratioP2;P2;SDS_P1;SDS_P2;PMS_P1;PMS_P2;Temp;Humidity;BMP_temperature;BMP_pressure;BME280_temperature;BME280_humidity;BME280_pressure;Samples;Min_cycle;Max_cycle;Signal;HPM_P1;HPM_P2
2022/04/17 00:00:53;;;;;;;8.9;6.299999;;;;;;;1.4;56.4668;96317.1;;;;
2022/04/17 00:01:54;;;;;;;8.9;6.299999;;;;;;;1.4;56.4668;96317.1;;;;
2022/04/17 00:02:55;;;;;;;8.9;6.299999;;;;;;;1.4;56.4668;96317.1;;;;
2022/04/17 00:03:55;;;;;;;8.9;6.299999;;;;;;;1.4;56.4668;96317.1;;;;
2022/04/17 00:04:56;;;;;;;8.9;6.299999;;;;;;;1.4;56.4668;96317.1;;;;
2022/04/17 00:05:56;;;;;;;8.9;6.299999;;;;;;;1.4;56.4668;96317.1;;;;
2022/04/17 00:06:57;;;;;;;8.9;6.299999;;;;;;;1.4;56.4668;96317.1;;;;
2022/04/17 00:07:57;;;;;;;9.150001;6.4;;;;;;;1.41;56.57422;96302.29;;;;
2022/04/17 00:08:58;;;;;;;9.150001;6.4;;;;;;;1.41;56.57422;96302.29;;;;
2022/04/17 00:09:58;;;;;;;9.150001;6.4;;;;;;;1.41;56.57422;96302.29;;;;
2022/04/17 00:11:01;;;;;;;9.150001;6.4;;;;;;;1.41;56.57422;96302.29;;;;
2022/04/17 00:12:02;;;;;;;9.150001;6.4;;;;;;;1.41;56.57422;96302.29;;;;
2022/04/17 00:13:04;;;;;;;9.150001;6.4;;;;;;;1.41;56.57422;96302.29;;;;
2022/04/17 00:14:04;;;;;;;9.150001;6.4;;;;;;;1.41;56.57422;96302.29;;;;
2022/04/17 00:15:05;;;;;;;9.150001;6.4;;;;;;;1.41;56.57422;96302.29;;;;
2022/04/17 00:16:07;;;;;;;9.150001;6.4;;;;;;;1.41;56.57422;96302.29;;;;
2022/04/17 00:17:09;;;;;;;9.150001;6.4;;;;;;;1.41;56.57422;96302.29;;;;
2022/04/17 00:18:10;;;;;;;8.1;6.05;;;;;;;1.41;56.7627;96300.12;;;;
2022/04/17 00:19:11;;;;;;;8.1;6.05;;;;;;;1.41;56.7627;96300.12;;;;
2022/04/17 00:20:11;;;;;;;8.1;6.05;;;;;;;1.41;56.7627;96300.12;;;;
2022/04/17 00:21:15;;;;;;;8.1;6.05;;;;;;;1.41;56.7627;96300.12;;;;
2022/04/17 00:22:16;;;;;;;8.1;6.05;;;;;;;1.41;56.7627;96300.12;;;;
2022/04/17 00:23:16;;;;;;;8.1;6.05;;;;;;;1.41;56.7627;96300.12;;;;
2022/04/17 00:24:17;;;;;;;8.1;6.05;;;;;;;1.41;56.7627;96300.12;;;;
2022/04/17 00:25:18;;;;;;;8.1;6.05;;;;;;;1.41;56.7627;96300.12;;;;
2022/04/17 00:26:19;;;;;;;8.1;6.05;;;;;;;1.41;56.7627;96300.12;;;;
2022/04/17 00:27:19;;;;;;;8.1;6.05;;;;;;;1.41;56.7627;96300.12;;;;
2022/04/17 00:28:19;;;;;;;8.1;6.05;;;;;;;1.41;56.7627;96300.12;;;;
2022/04/17 00:29:20;;;;;;;7.95;6.000001;;;;;;;1.37;56.93555;96287.72;;;;
2022/04/17 00:30:21;;;;;;;7.95;6.000001;;;;;;;1.37;56.93555;96287.72;;;;
2022/04/17 00:31:23;;;;;;;7.95;6.000001;;;;;;;1.37;56.93555;96287.72;;;;
2022/04/17 00:32:23;;;;;;;7.95;6.000001;;;;;;;1.37;56.93555;96287.72;;;;
2022/04/17 00:33:24;;;;;;;7.95;6.000001;;;;;;;1.37;56.93555;96287.72;;;;
2022/04/17 00:34:24;;;;;;;7.95;6.000001;;;;;;;1.37;56.93555;96287.72;;;;
2022/04/17 00:35:25;;;;;;;7.95;6.000001;;;;;;;1.37;56.93555;96287.72;;;;
2022/04/17 00:36:26;;;;;;;7.95;6.000001;;;;;;;1.37;56.93555;96287.72;;;;
2022/04/17 00:37:27;;;;;;;7.95;6.000001;;;;;;;1.37;56.93555;96287.72;;;;
2022/04/17 00:38:27;;;;;;;7.95;6.000001;;;;;;;1.37;56.93555;96287.72;;;;
2022/04/17 00:39:28;;;;;;;7.849999;5.4;;;;;;;1.3;57.05273;96295.04;;;;
2022/04/17 00:40:29;;;;;;;7.849999;5.4;;;;;;;1.3;57.05273;96295.04;;;;
2022/04/17 00:41:29;;;;;;;7.849999;5.4;;;;;;;1.3;57.05273;96295.04;;;;
2022/04/17 00:42:31;;;;;;;7.849999;5.4;;;;;;;1.3;57.05273;96295.04;;;;
2022/04/17 00:43:32;;;;;;;7.849999;5.4;;;;;;;1.3;57.05273;96295.04;;;;
2022/04/17 00:44:43;;;;;;;7.849999;5.4;;;;;;;1.3;57.05273;96295.04;;;;
2022/04/17 00:45:44;;;;;;;7.849999;5.4;;;;;;;1.3;57.05273;96295.04;;;;
2022/04/17 00:46:44;;;;;;;7.849999;5.4;;;;;;;1.3;57.05273;96295.04;;;;
2022/04/17 00:47:45;;;;;;;7.849999;5.4;;;;;;;1.3;57.05273;96295.04;;;;
2022/04/17 00:48:46;;;;;;;7.849999;5.4;;;;;;;1.3;57.05273;96295.04;;;;
2022/04/17 00:49:47;;;;;;;7.849999;5.4;;;;;;;1.3;57.05273;96295.04;;;;
2022/04/17 00:50:47;;;;;;;8.900002;5.8;;;;;;;1.16;57.27637;96293.85;;;;
2022/04/17 00:51:49;;;;;;;8.900002;5.8;;;;;;;1.16;57.27637;96293.85;;;;
2022/04/17 00:52:50;;;;;;;8.900002;5.8;;;;;;;1.16;57.27637;96293.85;;;;
2022/04/17 00:53:52;;;;;;;8.900002;5.8;;;;;;;1.16;57.27637;96293.85;;;;
2022/04/17 00:54:53;;;;;;;8.900002;5.8;;;;;;;1.16;57.27637;96293.85;;;;
2022/04/17 00:55:55;;;;;;;8.900002;5.8;;;;;;;1.16;57.27637;96293.85;;;;
2022/04/17 00:56:55;;;;;;;8.900002;5.8;;;;;;;1.16;57.27637;96293.85;;;;
2022/04/17 00:57:56;;;;;;;8.900002;5.8;;;;;;;1.16;57.27637;96293.85;;;;
2022/04/17 00:58:57;;;;;;;8.900002;5.8;;;;;;;1.16;57.27637;96293.85;;;;
2022/04/17 00:59:57;;;;;;;8.900002;5.8;;;;;;;1.16;57.27637;96293.85;;;;
2022/04/17 01:00:58;;;;;;;8;5.5;;;;;;;0.98;57.47266;96280.16;;;;
2022/04/17 01:01:59;;;;;;;8;5.5;;;;;;;0.98;57.47266;96280.16;;;;
2022/04/17 01:02:59;;;;;;;8;5.5;;;;;;;0.98;57.47266;96280.16;;;;
2022/04/17 01:04:01;;;;;;;8;5.5;;;;;;;0.98;57.47266;96280.16;;;;
2022/04/17 01:05:03;;;;;;;8;5.5;;;;;;;0.98;57.47266;96280.16;;;;
2022/04/17 01:06:04;;;;;;;8;5.5;;;;;;;0.98;57.47266;96280.16;;;;
2022/04/17 01:07:05;;;;;;;8;5.5;;;;;;;0.98;57.47266;96280.16;;;;
2022/04/17 01:08:06;;;;;;;8;5.5;;;;;;;0.98;57.47266;96280.16;;;;
2022/04/17 01:09:07;;;;;;;8;5.5;;;;;;;0.98;57.47266;96280.16;;;;
2022/04/17 01:10:08;;;;;;;8;5.5;;;;;;;0.98;57.47266;96280.16;;;;
2022/04/17 01:11:10;;;;;;;8;5.5;;;;;;;0.98;57.47266;96280.16;;;;
2022/04/17 01:12:11;;;;;;;8.7;6.149999;;;;;;;0.87;57.5957;96274.58;;;;
2022/04/17 01:13:12;;;;;;;8.7;6.149999;;;;;;;0.87;57.5957;96274.58;;;;
2022/04/17 01:14:12;;;;;;;8.7;6.149999;;;;;;;0.87;57.5957;96274.58;;;;
2022/04/17 01:15:13;;;;;;;8.7;6.149999;;;;;;;0.87;57.5957;96274.58;;;;
2022/04/17 01:16:16;;;;;;;8.7;6.149999;;;;;;;0.87;57.5957;96274.58;;;;
2022/04/17 01:17:17;;;;;;;8.7;6.149999;;;;;;;0.87;57.5957;96274.58;;;;
2022/04/17 01:18:17;;;;;;;8.7;6.149999;;;;;;;0.87;57.5957;96274.58;;;;
2022/04/17 01:19:18;;;;;;;8.7;6.149999;;;;;;;0.87;57.5957;96274.58;;;;
2022/04/17 01:20:18;;;;;;;8.7;6.149999;;;;;;;0.87;57.5957;96274.58;;;;
2022/04/17 01:21:19;;;;;;;8.7;6.149999;;;;;;;0.87;57.5957;96274.58;;;;
2022/04/17 01:22:20;;;;;;;7.150001;5.35;;;;;;;0.68;57.6543;96263.28;;;;
2022/04/17 01:28:31;;;;;;;7.150001;5.35;;;;;;;0.68;57.6543;96263.28;;;;
2022/04/17 01:29:31;;;;;;;7.150001;5.35;;;;;;;0.68;57.6543;96263.28;;;;
2022/04/17 01:30:34;;;;;;;7.150001;5.35;;;;;;;0.68;57.6543;96263.28;;;;
2022/04/17 01:31:38;;;;;;;7.150001;5.35;;;;;;;0.68;57.6543;96263.28;;;;
2022/04/17 01:32:39;;;;;;;7.150001;5.35;;;;;;;0.68;57.6543;96263.28;;;;
2022/04/17 01:33:39;;;;;;;6.8;5.500001;;;;;;;0.54;57.78223;96256.16;;;;
2022/04/17 01:34:40;;;;;;;6.8;5.500001;;;;;;;0.54;57.78223;96256.16;;;;
2022/04/17 01:35:40;;;;;;;6.8;5.500001;;;;;;;0.54;57.78223;96256.16;;;;
2022/04/17 01:36:41;;;;;;;6.8;5.500001;;;;;;;0.54;57.78223;96256.16;;;;
2022/04/17 01:37:42;;;;;;;6.8;5.500001;;;;;;;0.54;57.78223;96256.16;;;;
2022/04/17 01:38:46;;;;;;;6.8;5.500001;;;;;;;0.54;57.78223;96256.16;;;;
2022/04/17 01:39:46;;;;;;;6.8;5.500001;;;;;;;0.54;57.78223;96256.16;;;;
2022/04/17 01:40:47;;;;;;;6.8;5.500001;;;;;;;0.54;57.78223;96256.16;;;;
2022/04/17 01:41:48;;;;;;;6.8;5.500001;;;;;;;0.54;57.78223;96256.16;;;;
2022/04/17 01:42:50;;;;;;;6.8;5.500001;;;;;;;0.54;57.78223;96256.16;;;;
2022/04/17 01:43:50;;;;;;;6.849999;5.45;;;;;;;0.42;57.90332;96253.39;;;;
2022/04/17 01:44:51;;;;;;;6.849999;5.45;;;;;;;0.42;57.90332;96253.39;;;;
2022/04/17 01:45:52;;;;;;;6.849999;5.45;;;;;;;0.42;57.90332;96253.39;;;;
2022/04/17 01:46:52;;;;;;;6.849999;5.45;;;;;;;0.42;57.90332;96253.39;;;;
2022/04/17 01:47:54;;;;;;;6.849999;5.45;;;;;;;0.42;57.90332;96253.39;;;;
2022/04/17 01:48:54;;;;;;;6.849999;5.45;;;;;;;0.42;57.90332;96253.39;;;;
2022/04/17 01:49:55;;;;;;;6.849999;5.45;;;;;;;0.42;57.90332;96253.39;;;;
2022/04/17 01:50:56;;;;;;;6.849999;5.45;;;;;;;0.42;57.90332;96253.39;;;;
2022/04/17 01:51:56;;;;;;;6.849999;5.45;;;;;;;0.42;57.90332;96253.39;;;;
2022/04/17 01:52:59;;;;;;;6.849999;5.45;;;;;;;0.42;57.90332;96253.39;;;;
2022/04/17 01:53:59;;;;;;;6.849999;5.45;;;;;;;0.42;57.90332;96253.39;;;;
2022/04/17 01:55:00;;;;;;;6.5;4.950001;;;;;;;0.4;58.44629;96240.75;;;;
2022/04/17 01:56:01;;;;;;;6.5;4.950001;;;;;;;0.4;58.44629;96240.75;;;;
2022/04/17 01:57:01;;;;;;;6.5;4.950001;;;;;;;0.4;58.44629;96240.75;;;;
2022/04/17 01:58:03;;;;;;;6.5;4.950001;;;;;;;0.4;58.44629;96240.75;;;;
2022/04/17 01:59:04;;;;;;;6.5;4.950001;;;;;;;0.4;58.44629;96240.75;;;;
2022/04/17 02:00:05;;;;;;;6.5;4.950001;;;;;;;0.4;58.44629;96240.75;;;;
2022/04/17 02:01:07;;;;;;;6.5;4.950001;;;;;;;0.4;58.44629;96240.75;;;;
2022/04/17 02:02:08;;;;;;;6.5;4.950001;;;;;;;0.4;58.44629;96240.75;;;;
2022/04/17 02:03:09;;;;;;;6.5;4.950001;;;;;;;0.4;58.44629;96240.75;;;;
2022/04/17 02:04:09;;;;;;;6.5;4.950001;;;;;;;0.4;58.44629;96240.75;;;;
2022/04/17 02:05:10;;;;;;;8.65;4.95;;;;;;;0.52;58.5459;96227.15;;;;
2022/04/17 02:06:10;;;;;;;8.65;4.95;;;;;;;0.52;58.5459;96227.15;;;;
2022/04/17 02:07:11;;;;;;;8.65;4.95;;;;;;;0.52;58.5459;96227.15;;;;
2022/04/17 02:08:13;;;;;;;8.65;4.95;;;;;;;0.52;58.5459;96227.15;;;;
2022/04/17 02:09:13;;;;;;;8.65;4.95;;;;;;;0.52;58.5459;96227.15;;;;
2022/04/17 02:10:19;;;;;;;8.65;4.95;;;;;;;0.52;58.5459;96227.15;;;;
2022/04/17 02:11:20;;;;;;;8.65;4.95;;;;;;;0.52;58.5459;96227.15;;;;
2022/04/17 02:12:22;;;;;;;8.65;4.95;;;;;;;0.52;58.5459;96227.15;;;;
2022/04/17 02:13:23;;;;;;;8.65;4.95;;;;;;;0.52;58.5459;96227.15;;;;
2022/04/17 02:14:23;;;;;;;8.65;4.95;;;;;;;0.52;58.5459;96227.15;;;;
2022/04/17 02:15:25;;;;;;;8.65;4.95;;;;;;;0.52;58.5459;96227.15;;;;
2022/04/17 02:16:26;;;;;;;5.800001;4.650001;;;;;;;0.53;58.5791;96212.91;;;;
2022/04/17 02:17:27;;;;;;;5.800001;4.650001;;;;;;;0.53;58.5791;96212.91;;;;
2022/04/17 02:18:27;;;;;;;5.800001;4.650001;;;;;;;0.53;58.5791;96212.91;;;;
2022/04/17 02:19:27;;;;;;;5.800001;4.650001;;;;;;;0.53;58.5791;96212.91;;;;
2022/04/17 02:20:28;;;;;;;5.800001;4.650001;;;;;;;0.53;58.5791;96212.91;;;;
2022/04/17 02:21:28;;;;;;;5.800001;4.650001;;;;;;;0.53;58.5791;96212.91;;;;
2022/04/17 02:22:30;;;;;;;5.800001;4.650001;;;;;;;0.53;58.5791;96212.91;;;;
2022/04/17 02:23:31;;;;;;;5.800001;4.650001;;;;;;;0.53;58.5791;96212.91;;;;
2022/04/17 02:24:32;;;;;;;5.800001;4.650001;;;;;;;0.53;58.5791;96212.91;;;;
2022/04/17 02:25:32;;;;;;;5.800001;4.650001;;;;;;;0.53;58.5791;96212.91;;;;
2022/04/17 02:26:33;;;;;;;6.4;4.65;;;;;;;0.54;58.6543;96213.23;;;;
2022/04/17 02:27:33;;;;;;;6.4;4.65;;;;;;;0.54;58.6543;96213.23;;;;
2022/04/17 02:28:35;;;;;;;6.4;4.65;;;;;;;0.54;58.6543;96213.23;;;;
2022/04/17 02:29:36;;;;;;;6.4;4.65;;;;;;;0.54;58.6543;96213.23;;;;
2022/04/17 02:30:36;;;;;;;6.4;4.65;;;;;;;0.54;58.6543;96213.23;;;;
2022/04/17 02:31:37;;;;;;;6.4;4.65;;;;;;;0.54;58.6543;96213.23;;;;
2022/04/17 02:32:38;;;;;;;6.4;4.65;;;;;;;0.54;58.6543;96213.23;;;;
2022/04/17 02:33:38;;;;;;;6.4;4.65;;;;;;;0.54;58.6543;96213.23;;;;
2022/04/17 02:34:39;;;;;;;6.4;4.65;;;;;;;0.54;58.6543;96213.23;;;;
2022/04/17 02:35:40;;;;;;;6.4;4.65;;;;;;;0.54;58.6543;96213.23;;;;
2022/04/17 02:36:40;;;;;;;6.4;4.65;;;;;;;0.54;58.6543;96213.23;;;;
2022/04/17 02:37:41;;;;;;;6.5;4.65;;;;;;;0.51;58.74414;96206.91;;;;
2022/04/17 02:38:41;;;;;;;6.5;4.65;;;;;;;0.51;58.74414;96206.91;;;;
2022/04/17 02:39:42;;;;;;;6.5;4.65;;;;;;;0.51;58.74414;96206.91;;;;
2022/04/17 02:40:42;;;;;;;6.5;4.65;;;;;;;0.51;58.74414;96206.91;;;;
2022/04/17 02:41:42;;;;;;;6.5;4.65;;;;;;;0.51;58.74414;96206.91;;;;
2022/04/17 02:42:43;;;;;;;6.5;4.65;;;;;;;0.51;58.74414;96206.91;;;;
2022/04/17 02:43:43;;;;;;;6.5;4.65;;;;;;;0.51;58.74414;96206.91;;;;
2022/04/17 02:44:44;;;;;;;6.5;4.65;;;;;;;0.51;58.74414;96206.91;;;;
2022/04/17 02:45:44;;;;;;;6.5;4.65;;;;;;;0.51;58.74414;96206.91;;;;
2022/04/17 02:47:51;;;;;;;6.5;4.65;;;;;;;0.51;58.74414;96206.91;;;;
2022/04/17 02:48:51;;;;;;;6.149999;4.849999;;;;;;;0.46;58.83105;96211.42;;;;
2022/04/17 02:49:52;;;;;;;6.149999;4.849999;;;;;;;0.46;58.83105;96211.42;;;;
2022/04/17 02:50:53;;;;;;;6.149999;4.849999;;;;;;;0.46;58.83105;96211.42;;;;
2022/04/17 02:51:53;;;;;;;6.149999;4.849999;;;;;;;0.46;58.83105;96211.42;;;;
2022/04/17 02:52:55;;;;;;;6.149999;4.849999;;;;;;;0.46;58.83105;96211.42;;;;
2022/04/17 02:53:57;;;;;;;6.149999;4.849999;;;;;;;0.46;58.83105;96211.42;;;;
2022/04/17 02:54:57;;;;;;;6.149999;4.849999;;;;;;;0.46;58.83105;96211.42;;;;
2022/04/17 02:55:57;;;;;;;6.149999;4.849999;;;;;;;0.46;58.83105;96211.42;;;;
2022/04/17 02:56:58;;;;;;;6.149999;4.849999;;;;;;;0.46;58.83105;96211.42;;;;
2022/04/17 02:57:59;;;;;;;6.149999;4.849999;;;;;;;0.46;58.83105;96211.42;;;;
2022/04/17 02:58:59;;;;;;;6.15;4.650001;;;;;;;0.37;58.90332;96206.11;;;;
2022/04/17 03:00:00;;;;;;;6.15;4.650001;;;;;;;0.37;58.90332;96206.11;;;;
2022/04/17 03:06:15;;;;;;;6.15;4.650001;;;;;;;0.37;58.90332;96206.11;;;;
2022/04/17 03:07:15;;;;;;;6.15;4.650001;;;;;;;0.37;58.90332;96206.11;;;;
2022/04/17 03:08:16;;;;;;;6.15;4.650001;;;;;;;0.37;58.90332;96206.11;;;;
2022/04/17 03:09:18;;;;;;;5.35;4.75;;;;;;;0.26;58.93066;96190.39;;;;
2022/04/17 03:10:18;;;;;;;5.35;4.75;;;;;;;0.26;58.93066;96190.39;;;;
2022/04/17 03:11:19;;;;;;;5.35;4.75;;;;;;;0.26;58.93066;96190.39;;;;
2022/04/17 03:12:19;;;;;;;5.35;4.75;;;;;;;0.26;58.93066;96190.39;;;;
2022/04/17 03:13:20;;;;;;;5.35;4.75;;;;;;;0.26;58.93066;96190.39;;;;
2022/04/17 03:14:20;;;;;;;5.35;4.75;;;;;;;0.26;58.93066;96190.39;;;;
2022/04/17 03:15:21;;;;;;;5.35;4.75;;;;;;;0.26;58.93066;96190.39;;;;
2022/04/17 03:16:21;;;;;;;5.35;4.75;;;;;;;0.26;58.93066;96190.39;;;;
2022/04/17 03:17:22;;;;;;;5.35;4.75;;;;;;;0.26;58.93066;96190.39;;;;
2022/04/17 03:18:22;;;;;;;5.35;4.75;;;;;;;0.26;58.93066;96190.39;;;;
2022/04/17 03:19:23;;;;;;;5.35;4.75;;;;;;;0.26;58.93066;96190.39;;;;
2022/04/17 03:20:23;;;;;;;5.95;5.05;;;;;;;0.19;58.99414;96184.92;;;;
2022/04/17 03:21:24;;;;;;;5.95;5.05;;;;;;;0.19;58.99414;96184.92;;;;
2022/04/17 03:22:25;;;;;;;5.95;5.05;;;;;;;0.19;58.99414;96184.92;;;;
2022/04/17 03:23:26;;;;;;;5.95;5.05;;;;;;;0.19;58.99414;96184.92;;;;
2022/04/17 03:24:26;;;;;;;5.95;5.05;;;;;;;0.19;58.99414;96184.92;;;;
2022/04/17 03:25:27;;;;;;;5.95;5.05;;;;;;;0.19;58.99414;96184.92;;;;
2022/04/17 03:26:27;;;;;;;5.95;5.05;;;;;;;0.19;58.99414;96184.92;;;;
2022/04/17 03:27:28;;;;;;;5.95;5.05;;;;;;;0.19;58.99414;96184.92;;;;
2022/04/17 03:28:28;;;;;;;5.95;5.05;;;;;;;0.19;58.99414;96184.92;;;;
2022/04/17 03:29:29;;;;;;;5.95;5.05;;;;;;;0.19;58.99414;96184.92;;;;
2022/04/17 03:30:29;;;;;;;8.200001;5;;;;;;;0.11;59.03516;96189.75;;;;
2022/04/17 03:31:30;;;;;;;8.200001;5;;;;;;;0.11;59.03516;96189.75;;;;
2022/04/17 03:32:31;;;;;;;8.200001;5;;;;;;;0.11;59.03516;96189.75;;;;
2022/04/17 03:33:32;;;;;;;8.200001;5;;;;;;;0.11;59.03516;96189.75;;;;
2022/04/17 03:34:32;;;;;;;8.200001;5;;;;;;;0.11;59.03516;96189.75;;;;
2022/04/17 03:35:33;;;;;;;8.200001;5;;;;;;;0.11;59.03516;96189.75;;;;
2022/04/17 03:36:33;;;;;;;8.200001;5;;;;;;;0.11;59.03516;96189.75;;;;
2022/04/17 03:37:34;;;;;;;8.200001;5;;;;;;;0.11;59.03516;96189.75;;;;
2022/04/17 03:38:35;;;;;;;8.200001;5;;;;;;;0.11;59.03516;96189.75;;;;
2022/04/17 03:39:35;;;;;;;8.200001;5;;;;;;;0.11;59.03516;96189.75;;;;
2022/04/17 03:40:36;;;;;;;8.200001;5;;;;;;;0.11;59.03516;96189.75;;;;
2022/04/17 03:41:37;;;;;;;8.150002;5.849999;;;;;;;0.1;59.21289;96181.36;;;;
2022/04/17 03:42:37;;;;;;;8.150002;5.849999;;;;;;;0.1;59.21289;96181.36;;;;
2022/04/17 03:43:39;;;;;;;8.150002;5.849999;;;;;;;0.1;59.21289;96181.36;;;;
2022/04/17 03:44:40;;;;;;;8.150002;5.849999;;;;;;;0.1;59.21289;96181.36;;;;
2022/04/17 03:45:41;;;;;;;8.150002;5.849999;;;;;;;0.1;59.21289;96181.36;;;;
2022/04/17 03:46:41;;;;;;;8.150002;5.849999;;;;;;;0.1;59.21289;96181.36;;;;
2022/04/17 03:47:42;;;;;;;8.150002;5.849999;;;;;;;0.1;59.21289;96181.36;;;;
2022/04/17 03:48:43;;;;;;;8.150002;5.849999;;;;;;;0.1;59.21289;96181.36;;;;
2022/04/17 03:49:43;;;;;;;8.150002;5.849999;;;;;;;0.1;59.21289;96181.36;;;;
2022/04/17 03:50:43;;;;;;;8.150002;5.849999;;;;;;;0.1;59.21289;96181.36;;;;
2022/04/17 03:51:44;;;;;;;7.45;5.85;;;;;;;0.1;59.18066;96176.53;;;;
2022/04/17 03:52:45;;;;;;;7.45;5.85;;;;;;;0.1;59.18066;96176.53;;;;
2022/04/17 03:53:47;;;;;;;7.45;5.85;;;;;;;0.1;59.18066;96176.53;;;;
2022/04/17 03:54:47;;;;;;;7.45;5.85;;;;;;;0.1;59.18066;96176.53;;;;
2022/04/17 03:55:48;;;;;;;7.45;5.85;;;;;;;0.1;59.18066;96176.53;;;;
2022/04/17 03:56:48;;;;;;;7.45;5.85;;;;;;;0.1;59.18066;96176.53;;;;
2022/04/17 03:57:49;;;;;;;7.45;5.85;;;;;;;0.1;59.18066;96176.53;;;;
2022/04/17 03:58:49;;;;;;;7.45;5.85;;;;;;;0.1;59.18066;96176.53;;;;
2022/04/17 03:59:50;;;;;;;7.45;5.85;;;;;;;0.1;59.18066;96176.53;;;;
2022/04/17 04:00:50;;;;;;;7.45;5.85;;;;;;;0.1;59.18066;96176.53;;;;
2022/04/17 04:01:51;;;;;;;7.45;5.85;;;;;;;0.1;59.18066;96176.53;;;;
2022/04/17 04:02:52;;;;;;;9.3;6.299999;;;;;;;0.04;59.31934;96176.22;;;;
2022/04/17 04:03:53;;;;;;;9.3;6.299999;;;;;;;0.04;59.31934;96176.22;;;;
2022/04/17 04:04:54;;;;;;;9.3;6.299999;;;;;;;0.04;59.31934;96176.22;;;;
2022/04/17 04:05:55;;;;;;;9.3;6.299999;;;;;;;0.04;59.31934;96176.22;;;;
2022/04/17 04:06:55;;;;;;;9.3;6.299999;;;;;;;0.04;59.31934;96176.22;;;;
2022/04/17 04:07:56;;;;;;;9.3;6.299999;;;;;;;0.04;59.31934;96176.22;;;;
2022/04/17 04:08:56;;;;;;;9.3;6.299999;;;;;;;0.04;59.31934;96176.22;;;;
2022/04/17 04:09:57;;;;;;;9.3;6.299999;;;;;;;0.04;59.31934;96176.22;;;;
2022/04/17 04:10:57;;;;;;;9.3;6.299999;;;;;;;0.04;59.31934;96176.22;;;;
2022/04/17 04:11:58;;;;;;;9.3;6.299999;;;;;;;0.04;59.31934;96176.22;;;;
2022/04/17 04:12:58;;;;;;;9.3;6.299999;;;;;;;0.04;59.31934;96176.22;;;;
2022/04/17 04:13:59;;;;;;;8.5;6;;;;;;;-0.15;59.40918;96178.52;;;;
2022/04/17 04:14:59;;;;;;;8.5;6;;;;;;;-0.15;59.40918;96178.52;;;;
2022/04/17 04:16:00;;;;;;;8.5;6;;;;;;;-0.15;59.40918;96178.52;;;;
2022/04/17 04:17:00;;;;;;;8.5;6;;;;;;;-0.15;59.40918;96178.52;;;;
2022/04/17 04:18:01;;;;;;;8.5;6;;;;;;;-0.15;59.40918;96178.52;;;;
2022/04/17 04:19:02;;;;;;;8.5;6;;;;;;;-0.15;59.40918;96178.52;;;;
2022/04/17 04:20:03;;;;;;;8.5;6;;;;;;;-0.15;59.40918;96178.52;;;;
2022/04/17 04:21:05;;;;;;;8.5;6;;;;;;;-0.15;59.40918;96178.52;;;;
2022/04/17 04:22:05;;;;;;;8.5;6;;;;;;;-0.15;59.40918;96178.52;;;;
2022/04/17 04:23:06;;;;;;;8.5;6;;;;;;;-0.15;59.40918;96178.52;;;;
2022/04/17 04:24:06;;;;;;;8.300001;6.200001;;;;;;;-0.39;59.68848;96179.61;;;;
2022/04/17 04:25:07;;;;;;;8.300001;6.200001;;;;;;;-0.39;59.68848;96179.61;;;;
2022/04/17 04:26:09;;;;;;;8.300001;6.200001;;;;;;;-0.39;59.68848;96179.61;;;;
2022/04/17 04:32:24;;;;;;;8.300001;6.200001;;;;;;;-0.39;59.68848;96179.61;;;;
2022/04/17 04:33:24;;;;;;;8.300001;6.200001;;;;;;;-0.39;59.68848;96179.61;;;;
2022/04/17 04:34:25;;;;;;;8.15;5.599999;;;;;;;-0.58;59.87109;96181.46;;;;
2022/04/17 04:35:26;;;;;;;8.15;5.599999;;;;;;;-0.58;59.87109;96181.46;;;;
2022/04/17 04:36:26;;;;;;;8.15;5.599999;;;;;;;-0.58;59.87109;96181.46;;;;
2022/04/17 04:37:27;;;;;;;8.15;5.599999;;;;;;;-0.58;59.87109;96181.46;;;;
2022/04/17 04:38:28;;;;;;;8.15;5.599999;;;;;;;-0.58;59.87109;96181.46;;;;
2022/04/17 04:39:28;;;;;;;8.15;5.599999;;;;;;;-0.58;59.87109;96181.46;;;;
2022/04/17 04:40:29;;;;;;;8.15;5.599999;;;;;;;-0.58;59.87109;96181.46;;;;
2022/04/17 04:41:29;;;;;;;8.15;5.599999;;;;;;;-0.58;59.87109;96181.46;;;;
2022/04/17 04:42:30;;;;;;;8.15;5.599999;;;;;;;-0.58;59.87109;96181.46;;;;
2022/04/17 04:43:30;;;;;;;8.15;5.599999;;;;;;;-0.58;59.87109;96181.46;;;;
2022/04/17 04:44:31;;;;;;;8.15;5.599999;;;;;;;-0.58;59.87109;96181.46;;;;
2022/04/17 04:46:37;;;;;;;7.950001;5.849999;;;;;;;-0.68;59.97168;96177.09;;;;
2022/04/17 04:47:38;;;;;;;7.950001;5.849999;;;;;;;-0.68;59.97168;96177.09;;;;
2022/04/17 04:49:43;;;;;;;7.950001;5.849999;;;;;;;-0.68;59.97168;96177.09;;;;
2022/04/17 04:50:44;;;;;;;7.950001;5.849999;;;;;;;-0.68;59.97168;96177.09;;;;
2022/04/17 04:51:44;;;;;;;7.950001;5.849999;;;;;;;-0.68;59.97168;96177.09;;;;
2022/04/17 04:52:45;;;;;;;7.950001;5.849999;;;;;;;-0.68;59.97168;96177.09;;;;
2022/04/17 04:53:45;;;;;;;7.950001;5.849999;;;;;;;-0.68;59.97168;96177.09;;;;
2022/04/17 04:54:46;;;;;;;7.950001;5.849999;;;;;;;-0.68;59.97168;96177.09;;;;
2022/04/17 04:55:46;;;;;;;7.600001;6.1;;;;;;;-0.68;60.01465;96181.91;;;;
2022/04/17 04:56:47;;;;;;;7.600001;6.1;;;;;;;-0.68;60.01465;96181.91;;;;
2022/04/17 04:57:47;;;;;;;7.600001;6.1;;;;;;;-0.68;60.01465;96181.91;;;;
2022/04/17 04:58:48;;;;;;;7.600001;6.1;;;;;;;-0.68;60.01465;96181.91;;;;
2022/04/17 04:59:49;;;;;;;7.600001;6.1;;;;;;;-0.68;60.01465;96181.91;;;;
2022/04/17 05:00:50;;;;;;;7.600001;6.1;;;;;;;-0.68;60.01465;96181.91;;;;
2022/04/17 05:01:50;;;;;;;7.600001;6.1;;;;;;;-0.68;60.01465;96181.91;;;;
2022/04/17 05:02:51;;;;;;;7.600001;6.1;;;;;;;-0.68;60.01465;96181.91;;;;
2022/04/17 05:03:52;;;;;;;7.600001;6.1;;;;;;;-0.68;60.01465;96181.91;;;;
2022/04/17 05:04:52;;;;;;;7.600001;6.1;;;;;;;-0.68;60.01465;96181.91;;;;
2022/04/17 05:05:53;;;;;;;7.600001;6.1;;;;;;;-0.68;60.01465;96181.91;;;;
2022/04/17 05:06:53;;;;;;;7.499999;6.05;;;;;;;-0.63;60.04199;96181.87;;;;
2022/04/17 05:07:54;;;;;;;7.499999;6.05;;;;;;;-0.63;60.04199;96181.87;;;;
2022/04/17 05:08:54;;;;;;;7.499999;6.05;;;;;;;-0.63;60.04199;96181.87;;;;
2022/04/17 05:09:55;;;;;;;7.499999;6.05;;;;;;;-0.63;60.04199;96181.87;;;;
2022/04/17 05:10:55;;;;;;;7.499999;6.05;;;;;;;-0.63;60.04199;96181.87;;;;
2022/04/17 05:11:56;;;;;;;7.499999;6.05;;;;;;;-0.63;60.04199;96181.87;;;;
2022/04/17 05:12:57;;;;;;;7.499999;6.05;;;;;;;-0.63;60.04199;96181.87;;;;
2022/04/17 05:13:57;;;;;;;7.499999;6.05;;;;;;;-0.63;60.04199;96181.87;;;;
2022/04/17 05:14:58;;;;;;;7.499999;6.05;;;;;;;-0.63;60.04199;96181.87;;;;
2022/04/17 05:15:59;;;;;;;7.499999;6.05;;;;;;;-0.63;60.04199;96181.87;;;;
2022/04/17 05:16:59;;;;;;;7.499999;6.05;;;;;;;-0.63;60.04199;96181.87;;;;
2022/04/17 05:17:59;;;;;;;7.8;5.950001;;;;;;;-0.4;60.0127;96182.78;;;;
2022/04/17 05:19:19;;;;;;;7.8;5.950001;;;;;;;-0.4;60.0127;96182.78;;;;
2022/04/17 05:20:20;;;;;;;7.8;5.950001;;;;;;;-0.4;60.0127;96182.78;;;;
2022/04/17 05:21:27;;;;;;;7.8;5.950001;;;;;;;-0.4;60.0127;96182.78;;;;
2022/04/17 05:22:31;;;;;;;7.8;5.950001;;;;;;;-0.4;60.0127;96182.78;;;;
2022/04/17 05:23:32;;;;;;;7.8;5.950001;;;;;;;-0.4;60.0127;96182.78;;;;
2022/04/17 05:24:33;;;;;;;7.8;5.950001;;;;;;;-0.4;60.0127;96182.78;;;;
2022/04/17 05:25:33;;;;;;;7.8;5.950001;;;;;;;-0.4;60.0127;96182.78;;;;
2022/04/17 05:26:33;;;;;;;7.8;5.950001;;;;;;;-0.4;60.0127;96182.78;;;;
2022/04/17 05:27:34;;;;;;;7.8;5.950001;;;;;;;-0.4;60.0127;96182.78;;;;
2022/04/17 05:28:34;;;;;;;7.2;5.9;;;;;;;0;59.90137;96177.52;;;;
2022/04/17 05:29:35;;;;;;;7.2;5.9;;;;;;;0;59.90137;96177.52;;;;
2022/04/17 05:30:35;;;;;;;7.2;5.9;;;;;;;0;59.90137;96177.52;;;;
2022/04/17 05:31:36;;;;;;;7.2;5.9;;;;;;;0;59.90137;96177.52;;;;
2022/04/17 05:32:37;;;;;;;7.2;5.9;;;;;;;0;59.90137;96177.52;;;;
2022/04/17 05:33:38;;;;;;;7.2;5.9;;;;;;;0;59.90137;96177.52;;;;
2022/04/17 05:34:38;;;;;;;7.2;5.9;;;;;;;0;59.90137;96177.52;;;;
2022/04/17 05:35:39;;;;;;;7.2;5.9;;;;;;;0;59.90137;96177.52;;;;
2022/04/17 05:36:39;;;;;;;7.2;5.9;;;;;;;0;59.90137;96177.52;;;;
2022/04/17 05:37:40;;;;;;;7.2;5.9;;;;;;;0;59.90137;96177.52;;;;
2022/04/17 05:38:40;;;;;;;8.650002;5.750001;;;;;;;0.47;59.67383;96178.16;;;;
2022/04/17 05:39:41;;;;;;;8.650002;5.750001;;;;;;;0.47;59.67383;96178.16;;;;
2022/04/17 05:40:41;;;;;;;8.650002;5.750001;;;;;;;0.47;59.67383;96178.16;;;;
2022/04/17 05:41:45;;;;;;;8.650002;5.750001;;;;;;;0.47;59.67383;96178.16;;;;
2022/04/17 05:42:46;;;;;;;8.650002;5.750001;;;;;;;0.47;59.67383;96178.16;;;;
2022/04/17 05:43:46;;;;;;;8.650002;5.750001;;;;;;;0.47;59.67383;96178.16;;;;
2022/04/17 05:44:47;;;;;;;8.650002;5.750001;;;;;;;0.47;59.67383;96178.16;;;;
2022/04/17 05:45:48;;;;;;;8.650002;5.750001;;;;;;;0.47;59.67383;96178.16;;;;
2022/04/17 05:46:49;;;;;;;8.650002;5.750001;;;;;;;0.47;59.67383;96178.16;;;;
2022/04/17 05:47:49;;;;;;;8.650002;5.750001;;;;;;;0.47;59.67383;96178.16;;;;
2022/04/17 05:48:50;;;;;;;8.650002;5.750001;;;;;;;0.47;59.67383;96178.16;;;;
2022/04/17 05:49:50;;;;;;;7.9;5.550001;;;;;;;0.94;59.55957;96179.52;;;;
2022/04/17 05:50:51;;;;;;;7.9;5.550001;;;;;;;0.94;59.55957;96179.52;;;;
2022/04/17 05:51:53;;;;;;;7.9;5.550001;;;;;;;0.94;59.55957;96179.52;;;;
2022/04/17 05:52:56;;;;;;;7.9;5.550001;;;;;;;0.94;59.55957;96179.52;;;;
2022/04/17 05:53:56;;;;;;;7.9;5.550001;;;;;;;0.94;59.55957;96179.52;;;;
2022/04/17 05:54:57;;;;;;;7.9;5.550001;;;;;;;0.94;59.55957;96179.52;;;;
2022/04/17 05:55:58;;;;;;;7.9;5.550001;;;;;;;0.94;59.55957;96179.52;;;;
2022/04/17 05:56:59;;;;;;;7.9;5.550001;;;;;;;0.94;59.55957;96179.52;;;;
2022/04/17 05:58:00;;;;;;;7.9;5.550001;;;;;;;0.94;59.55957;96179.52;;;;